sensor_id;sensor_type;location;lat;lon;timestamp;temperature;humidity
12039;DHT22;6080;48.818;9.526;2023-02-15T04:00:49;-2.40;99.90
12039;DHT22;6080;48.818;9.526;2023-02-15T04:03:43;-2.40;99.90
12039;DHT22;6080;48.818;9.526;2023-02-15T04:06:10;-2.50;99.90
12039;DHT22;6080;48.818;9.526;2023-02-15T04:08:36;-2.40;99.90
12039;DHT22;6080;48.818;9.526;2023-02-15T04:11:21;-2.50;99.90
12039;DHT22;6080;48.818;9.526;2023-02-15T04:16:14;-2.60;99.90
12039;DHT22;6080;48.818;9.526;2023-02-15T04:18:43;-2.50;99.90
12039;DHT22;6080;48.818;9.526;2023-02-15T04:21:29;-2.50;99.90
12039;DHT22;6080;48.818;9.526;2023-02-15T04:24:15;-2.50;99.90
12039;DHT22;6080;48.818;9.526;2023-02-15T04:26:59;-2.50;99.90
12039;DHT22;6080;48.818;9.526;2023-02-15T04:29:27;-2.50;99.90
12039;DHT22;6080;48.818;9.526;2023-02-15T04:31:54;-2.50;99.90
12039;DHT22;6080;48.818;9.526;2023-02-15T04:34:20;-2.50;99.90
12039;DHT22;6080;48.818;9.526;2023-02-15T04:36:46;-2.50;99.90
12039;DHT22;6080;48.818;9.526;2023-02-15T04:39:13;-2.50;99.90
12039;DHT22;6080;48.818;9.526;2023-02-15T04:41:39;-2.50;99.90
12039;DHT22;6080;48.818;9.526;2023-02-15T04:44:04;-2.50;99.90
12039;DHT22;6080;48.818;9.526;2023-02-15T04:46:30;-2.60;99.90
12039;DHT22;6080;48.818;9.526;2023-02-15T04:48:56;-2.50;99.90
12039;DHT22;6080;48.818;9.526;2023-02-15T04:51:23;-2.60;99.90
12039;DHT22;6080;48.818;9.526;2023-02-15T04:53:48;-2.60;99.90
12039;DHT22;6080;48.818;9.526;2023-02-15T04:56:14;-2.60;99.90
12039;DHT22;6080;48.818;9.526;2023-02-15T04:58:40;-2.70;99.90
12039;DHT22;6080;48.818;9.526;2023-02-15T05:01:08;-2.70;99.90
12039;DHT22;6080;48.818;9.526;2023-02-15T05:03:34;-2.80;99.90
12039;DHT22;6080;48.818;9.526;2023-02-15T05:06:00;-2.80;99.90
12039;DHT22;6080;48.818;9.526;2023-02-15T05:08:26;-2.80;99.90
12039;DHT22;6080;48.818;9.526;2023-02-15T05:10:52;-2.80;99.90
12039;DHT22;6080;48.818;9.526;2023-02-15T05:13:17;-2.90;99.90
12039;DHT22;6080;48.818;9.526;2023-02-15T05:15:50;-2.90;99.90
12039;DHT22;6080;48.818;9.526;2023-02-15T05:18:17;-2.90;99.90
12039;DHT22;6080;48.818;9.526;2023-02-15T05:20:44;-3.00;99.90
12039;DHT22;6080;48.818;9.526;2023-02-15T05:23:10;-2.90;99.90
12039;DHT22;6080;48.818;9.526;2023-02-15T05:25:36;-2.80;99.90
12039;DHT22;6080;48.818;9.526;2023-02-15T05:28:22;-2.80;99.90
12039;DHT22;6080;48.818;9.526;2023-02-15T05:30:49;-2.70;99.90
12039;DHT22;6080;48.818;9.526;2023-02-15T05:33:16;-2.70;99.90
12039;DHT22;6080;48.818;9.526;2023-02-15T05:35:42;-2.70;99.90
12039;DHT22;6080;48.818;9.526;2023-02-15T05:38:08;-2.70;99.90
12039;DHT22;6080;48.818;9.526;2023-02-15T05:40:34;-2.70;99.90
12039;DHT22;6080;48.818;9.526;2023-02-15T05:43:00;-2.70;99.90
12039;DHT22;6080;48.818;9.526;2023-02-15T05:45:26;-2.70;99.90
12039;DHT22;6080;48.818;9.526;2023-02-15T05:47:51;-2.70;99.90
12039;DHT22;6080;48.818;9.526;2023-02-15T05:50:17;-2.70;99.90
12039;DHT22;6080;48.818;9.526;2023-02-15T05:52:43;-2.80;99.90
12039;DHT22;6080;48.818;9.526;2023-02-15T05:55:09;-2.80;99.90
12039;DHT22;6080;48.818;9.526;2023-02-15T05:57:35;-2.80;99.90
12039;DHT22;6080;48.818;9.526;2023-02-15T06:00:03;-2.80;99.90
12039;DHT22;6080;48.818;9.526;2023-02-15T06:02:33;-2.90;99.90
12039;DHT22;6080;48.818;9.526;2023-02-15T06:04:59;-2.80;99.90
12039;DHT22;6080;48.818;9.526;2023-02-15T06:07:25;-2.90;99.90
12039;DHT22;6080;48.818;9.526;2023-02-15T06:09:50;-2.90;99.90
12039;DHT22;6080;48.818;9.526;2023-02-15T06:12:16;-3.00;99.90
12039;DHT22;6080;48.818;9.526;2023-02-15T06:14:42;-3.00;99.90
12039;DHT22;6080;48.818;9.526;2023-02-15T06:17:08;-3.10;99.90
12039;DHT22;6080;48.818;9.526;2023-02-15T06:19:33;-3.10;99.90
12039;DHT22;6080;48.818;9.526;2023-02-15T06:21:59;-3.10;99.90
12039;DHT22;6080;48.818;9.526;2023-02-15T06:24:25;-3.10;99.90
12039;DHT22;6080;48.818;9.526;2023-02-15T06:26:51;-3.10;99.90
12039;DHT22;6080;48.818;9.526;2023-02-15T06:29:16;-3.10;99.90
12039;DHT22;6080;48.818;9.526;2023-02-15T06:31:42;-3.10;99.90
12039;DHT22;6080;48.818;9.526;2023-02-15T06:34:08;-3.10;99.90
12039;DHT22;6080;48.818;9.526;2023-02-15T06:36:34;-3.10;99.90
12039;DHT22;6080;48.818;9.526;2023-02-15T06:39:00;-3.20;99.90
12039;DHT22;6080;48.818;9.526;2023-02-15T06:41:25;-3.20;99.90
12039;DHT22;6080;48.818;9.526;2023-02-15T06:43:51;-3.20;99.90
12039;DHT22;6080;48.818;9.526;2023-02-15T06:46:17;-3.10;99.90
12039;DHT22;6080;48.818;9.526;2023-02-15T06:48:43;-3.00;99.90
12039;DHT22;6080;48.818;9.526;2023-02-15T06:51:09;-2.90;99.90
12039;DHT22;6080;48.818;9.526;2023-02-15T06:53:34;-2.80;99.90
12039;DHT22;6080;48.818;9.526;2023-02-15T06:56:05;-2.80;99.90
12039;DHT22;6080;48.818;9.526;2023-02-15T06:58:39;-2.70;99.90
12039;DHT22;6080;48.818;9.526;2023-02-15T07:01:06;-2.60;99.90
12039;DHT22;6080;48.818;9.526;2023-02-15T07:03:32;-2.50;99.90
12039;DHT22;6080;48.818;9.526;2023-02-15T07:05:59;-2.40;99.90
12039;DHT22;6080;48.818;9.526;2023-02-15T07:08:26;-2.40;99.90
12039;DHT22;6080;48.818;9.526;2023-02-15T07:10:54;-2.40;99.90
12039;DHT22;6080;48.818;9.526;2023-02-15T07:13:20;-2.30;99.90
12039;DHT22;6080;48.818;9.526;2023-02-15T07:15:47;-2.30;99.90
12039;DHT22;6080;48.818;9.526;2023-02-15T07:18:13;-2.20;99.90
12039;DHT22;6080;48.818;9.526;2023-02-15T07:20:39;-2.10;99.90
12039;DHT22;6080;48.818;9.526;2023-02-15T07:23:07;-2.10;99.90
12039;DHT22;6080;48.818;9.526;2023-02-15T07:25:34;-2.00;99.90
12039;DHT22;6080;48.818;9.526;2023-02-15T07:28:01;-1.90;99.90
12039;DHT22;6080;48.818;9.526;2023-02-15T07:30:29;-1.80;99.90
12039;DHT22;6080;48.818;9.526;2023-02-15T07:32:58;-1.60;99.90
12039;DHT22;6080;48.818;9.526;2023-02-15T07:35:53;-1.40;99.90
12039;DHT22;6080;48.818;9.526;2023-02-15T07:38:20;-1.00;99.90
12039;DHT22;6080;48.818;9.526;2023-02-15T07:40:46;-0.60;99.90
12039;DHT22;6080;48.818;9.526;2023-02-15T07:43:12;-0.30;99.90
12039;DHT22;6080;48.818;9.526;2023-02-15T07:45:39;0.10;99.90
12039;DHT22;6080;48.818;9.526;2023-02-15T07:48:05;0.40;99.90
12039;DHT22;6080;48.818;9.526;2023-02-15T07:50:31;0.60;99.90
12039;DHT22;6080;48.818;9.526;2023-02-15T07:52:57;0.90;99.90
12039;DHT22;6080;48.818;9.526;2023-02-15T07:55:24;1.10;99.90
12039;DHT22;6080;48.818;9.526;2023-02-15T07:57:51;1.40;99.90
12039;DHT22;6080;48.818;9.526;2023-02-15T08:00:18;1.70;99.90
12039;DHT22;6080;48.818;9.526;2023-02-15T08:02:51;1.90;99.90
12039;DHT22;6080;48.818;9.526;2023-02-15T08:05:38;2.20;99.90
12039;DHT22;6080;48.818;9.526;2023-02-15T08:08:04;2.30;99.90
12039;DHT22;6080;48.818;9.526;2023-02-15T08:10:31;2.30;99.90
12039;DHT22;6080;48.818;9.526;2023-02-15T08:13:15;2.50;99.90
12039;DHT22;6080;48.818;9.526;2023-02-15T08:15:50;2.70;99.90
12039;DHT22;6080;48.818;9.526;2023-02-15T08:18:16;2.80;99.90
12039;DHT22;6080;48.818;9.526;2023-02-15T08:20:42;3.00;99.90
12039;DHT22;6080;48.818;9.526;2023-02-15T08:23:08;3.20;99.90
12039;DHT22;6080;48.818;9.526;2023-02-15T08:25:34;3.70;99.90
12039;DHT22;6080;48.818;9.526;2023-02-15T08:27:59;3.70;99.90
12039;DHT22;6080;48.818;9.526;2023-02-15T08:30:25;3.80;99.90
12039;DHT22;6080;48.818;9.526;2023-02-15T08:32:51;3.80;99.90
12039;DHT22;6080;48.818;9.526;2023-02-15T08:35:17;3.80;99.90
12039;DHT22;6080;48.818;9.526;2023-02-15T08:37:42;3.80;99.90
12039;DHT22;6080;48.818;9.526;2023-02-15T08:40:08;4.10;99.90
12039;DHT22;6080;48.818;9.526;2023-02-15T08:42:34;4.40;99.90
12039;DHT22;6080;48.818;9.526;2023-02-15T08:45:00;4.60;99.90
12039;DHT22;6080;48.818;9.526;2023-02-15T08:47:26;4.60;99.90
12039;DHT22;6080;48.818;9.526;2023-02-15T08:49:51;4.70;99.90
12039;DHT22;6080;48.818;9.526;2023-02-15T08:52:18;4.90;99.90
12039;DHT22;6080;48.818;9.526;2023-02-15T08:54:43;5.00;99.90
12039;DHT22;6080;48.818;9.526;2023-02-15T08:57:10;5.20;99.90
12039;DHT22;6080;48.818;9.526;2023-02-15T08:59:36;5.40;99.90
12039;DHT22;6080;48.818;9.526;2023-02-15T09:02:02;5.20;99.90
12039;DHT22;6080;48.818;9.526;2023-02-15T09:04:28;5.20;99.90
12039;DHT22;6080;48.818;9.526;2023-02-15T09:06:54;5.40;99.90
12039;DHT22;6080;48.818;9.526;2023-02-15T09:09:21;5.70;99.90
12039;DHT22;6080;48.818;9.526;2023-02-15T09:11:49;6.10;99.90
12039;DHT22;6080;48.818;9.526;2023-02-15T09:14:19;6.30;99.90
12039;DHT22;6080;48.818;9.526;2023-02-15T09:16:51;6.30;99.90
12039;DHT22;6080;48.818;9.526;2023-02-15T09:19:19;6.30;99.90
12039;DHT22;6080;48.818;9.526;2023-02-15T09:21:45;6.60;99.90
12039;DHT22;6080;48.818;9.526;2023-02-15T09:24:14;6.90;99.90
12039;DHT22;6080;48.818;9.526;2023-02-15T09:26:44;6.80;99.90
12039;DHT22;6080;48.818;9.526;2023-02-15T09:29:10;7.10;99.90
12039;DHT22;6080;48.818;9.526;2023-02-15T09:31:42;7.50;99.90
12039;DHT22;6080;48.818;9.526;2023-02-15T09:34:10;8.00;99.90
12039;DHT22;6080;48.818;9.526;2023-02-15T09:36:38;8.30;99.90
12039;DHT22;6080;48.818;9.526;2023-02-15T09:39:11;8.40;99.90
12039;DHT22;6080;48.818;9.526;2023-02-15T10:12:53;10.80;99.90
12039;DHT22;6080;48.818;9.526;2023-02-15T10:15:24;11.00;99.90
12039;DHT22;6080;48.818;9.526;2023-02-15T10:24:21;12.40;99.90
12039;DHT22;6080;48.818;9.526;2023-02-15T10:26:47;13.10;99.90
12039;DHT22;6080;48.818;9.526;2023-02-15T10:32:26;13.80;98.10
12039;DHT22;6080;48.818;9.526;2023-02-15T10:40:44;14.00;95.40
12039;DHT22;6080;48.818;9.526;2023-02-15T10:51:56;14.60;93.90
12039;DHT22;6080;48.818;9.526;2023-02-15T10:57:08;15.40;92.40
12039;DHT22;6080;48.818;9.526;2023-02-15T11:07:54;16.80;87.30
12039;DHT22;6080;48.818;9.526;2023-02-15T11:10:44;17.10;84.40
12039;DHT22;6080;48.818;9.526;2023-02-15T11:13:17;16.50;85.40
12039;DHT22;6080;48.818;9.526;2023-02-15T11:15:54;16.20;87.40
12039;DHT22;6080;48.818;9.526;2023-02-15T11:21:17;16.60;85.80
12039;DHT22;6080;48.818;9.526;2023-02-15T11:23:46;17.80;81.60
12039;DHT22;6080;48.818;9.526;2023-02-15T11:26:37;17.60;79.00
12039;DHT22;6080;48.818;9.526;2023-02-15T11:29:34;17.50;79.70
12039;DHT22;6080;48.818;9.526;2023-02-15T11:32:26;17.70;80.70
12039;DHT22;6080;48.818;9.526;2023-02-15T11:35:20;18.90;75.30
12039;DHT22;6080;48.818;9.526;2023-02-15T11:43:21;18.30;77.30
12039;DHT22;6080;48.818;9.526;2023-02-15T11:45:49;18.30;76.20
12039;DHT22;6080;48.818;9.526;2023-02-15T11:48:15;19.00;74.40
12039;DHT22;6080;48.818;9.526;2023-02-15T11:50:44;19.10;76.20
12039;DHT22;6080;48.818;9.526;2023-02-15T11:53:14;19.60;76.10
12039;DHT22;6080;48.818;9.526;2023-02-15T11:55:45;19.70;73.90
12039;DHT22;6080;48.818;9.526;2023-02-15T12:01:00;20.30;68.30
12039;DHT22;6080;48.818;9.526;2023-02-15T12:03:45;19.90;73.40
12039;DHT22;6080;48.818;9.526;2023-02-15T12:06:20;19.00;72.50
12039;DHT22;6080;48.818;9.526;2023-02-15T12:09:09;18.70;73.30
12039;DHT22;6080;48.818;9.526;2023-02-15T12:11:41;19.10;73.70
12039;DHT22;6080;48.818;9.526;2023-02-15T12:14:08;19.30;75.00
12039;DHT22;6080;48.818;9.526;2023-02-15T12:16:55;19.70;72.00
12039;DHT22;6080;48.818;9.526;2023-02-15T12:21:53;20.30;67.30
12039;DHT22;6080;48.818;9.526;2023-02-15T12:24:33;20.50;73.40
12039;DHT22;6080;48.818;9.526;2023-02-15T12:29:29;21.50;67.40
12039;DHT22;6080;48.818;9.526;2023-02-15T12:31:56;21.90;64.40
12039;DHT22;6080;48.818;9.526;2023-02-15T12:34:36;21.60;64.40
12039;DHT22;6080;48.818;9.526;2023-02-15T12:37:21;21.60;63.80
12039;DHT22;6080;48.818;9.526;2023-02-15T12:40:21;21.30;65.80
12039;DHT22;6080;48.818;9.526;2023-02-15T12:42:48;20.60;65.70
12039;DHT22;6080;48.818;9.526;2023-02-15T12:45:31;19.40;69.10
12039;DHT22;6080;48.818;9.526;2023-02-15T12:48:18;19.10;70.80
12039;DHT22;6080;48.818;9.526;2023-02-15T12:50:50;19.00;71.40
12039;DHT22;6080;48.818;9.526;2023-02-15T12:53:31;19.70;71.00
12039;DHT22;6080;48.818;9.526;2023-02-15T12:56:09;19.90;70.90
12039;DHT22;6080;48.818;9.526;2023-02-15T12:58:37;19.90;68.40
12039;DHT22;6080;48.818;9.526;2023-02-15T13:01:16;19.70;70.70
12039;DHT22;6080;48.818;9.526;2023-02-15T13:03:58;20.10;69.20
12039;DHT22;6080;48.818;9.526;2023-02-15T13:06:26;20.20;66.10
12039;DHT22;6080;48.818;9.526;2023-02-15T13:09:15;20.30;65.20
12039;DHT22;6080;48.818;9.526;2023-02-15T13:11:43;20.40;61.70
12039;DHT22;6080;48.818;9.526;2023-02-15T13:14:20;20.40;65.60
12039;DHT22;6080;48.818;9.526;2023-02-15T13:16:50;20.80;62.20
12039;DHT22;6080;48.818;9.526;2023-02-15T13:19:17;20.80;61.70
12039;DHT22;6080;48.818;9.526;2023-02-15T13:21:48;21.40;61.00
12039;DHT22;6080;48.818;9.526;2023-02-15T13:24:20;22.20;59.40
12039;DHT22;6080;48.818;9.526;2023-02-15T13:26:47;22.40;57.10
12039;DHT22;6080;48.818;9.526;2023-02-15T13:31:52;22.30;57.90
12039;DHT22;6080;48.818;9.526;2023-02-15T13:34:32;22.20;57.00
12039;DHT22;6080;48.818;9.526;2023-02-15T13:39:51;22.30;55.20
12039;DHT22;6080;48.818;9.526;2023-02-15T13:42:20;22.40;55.70
12039;DHT22;6080;48.818;9.526;2023-02-15T13:48:15;23.70;54.90
12039;DHT22;6080;48.818;9.526;2023-02-15T13:50:44;23.60;54.60
12039;DHT22;6080;48.818;9.526;2023-02-15T14:07:08;23.40;55.60
12039;DHT22;6080;48.818;9.526;2023-02-15T14:20:43;22.10;55.50
12039;DHT22;6080;48.818;9.526;2023-02-15T14:26:19;19.80;59.00
12039;DHT22;6080;48.818;9.526;2023-02-15T14:29:03;19.50;59.60
12039;DHT22;6080;48.818;9.526;2023-02-15T14:31:37;18.50;61.90
12039;DHT22;6080;48.818;9.526;2023-02-15T14:34:08;17.80;64.20
12039;DHT22;6080;48.818;9.526;2023-02-15T14:36:40;17.60;67.60
12039;DHT22;6080;48.818;9.526;2023-02-15T14:39:26;17.20;65.50
12039;DHT22;6080;48.818;9.526;2023-02-15T14:42:24;16.40;67.70
12039;DHT22;6080;48.818;9.526;2023-02-15T14:50:45;15.50;74.90
12039;DHT22;6080;48.818;9.526;2023-02-15T15:01:36;15.30;72.10
12039;DHT22;6080;48.818;9.526;2023-02-15T15:04:14;14.60;76.00
12039;DHT22;6080;48.818;9.526;2023-02-15T15:09:28;14.50;78.70
12039;DHT22;6080;48.818;9.526;2023-02-15T15:12:06;14.50;76.50
12039;DHT22;6080;48.818;9.526;2023-02-15T15:14:40;14.20;76.40
12039;DHT22;6080;48.818;9.526;2023-02-15T15:17:10;13.70;79.30
12039;DHT22;6080;48.818;9.526;2023-02-15T15:22:22;13.00;81.30
12039;DHT22;6080;48.818;9.526;2023-02-15T15:24:51;12.80;83.50
12039;DHT22;6080;48.818;9.526;2023-02-15T15:27:52;12.50;86.90
12039;DHT22;6080;48.818;9.526;2023-02-15T15:35:52;12.20;89.20
12039;DHT22;6080;48.818;9.526;2023-02-15T15:47:18;12.60;90.30
12039;DHT22;6080;48.818;9.526;2023-02-15T15:49:47;12.50;90.20
12039;DHT22;6080;48.818;9.526;2023-02-15T15:52:16;12.20;91.20
12039;DHT22;6080;48.818;9.526;2023-02-15T15:54:43;11.90;93.70
12039;DHT22;6080;48.818;9.526;2023-02-15T15:57:29;11.60;94.70
12039;DHT22;6080;48.818;9.526;2023-02-15T15:59:57;11.20;95.30
12039;DHT22;6080;48.818;9.526;2023-02-15T16:02:26;10.90;97.90
12039;DHT22;6080;48.818;9.526;2023-02-15T16:04:52;10.70;99.60
12039;DHT22;6080;48.818;9.526;2023-02-15T16:12:23;10.00;99.90
12039;DHT22;6080;48.818;9.526;2023-02-15T16:14:50;9.80;99.90
12039;DHT22;6080;48.818;9.526;2023-02-15T16:17:22;9.60;99.90
12039;DHT22;6080;48.818;9.526;2023-02-15T16:19:48;9.50;99.90
12039;DHT22;6080;48.818;9.526;2023-02-15T16:22:25;9.30;99.90
12039;DHT22;6080;48.818;9.526;2023-02-15T16:27:41;9.10;99.90
12039;DHT22;6080;48.818;9.526;2023-02-15T16:33:09;8.80;99.90
12039;DHT22;6080;48.818;9.526;2023-02-15T16:35:38;8.60;99.90
12039;DHT22;6080;48.818;9.526;2023-02-15T16:38:05;8.50;99.90
12039;DHT22;6080;48.818;9.526;2023-02-15T16:40:53;8.40;99.90
12039;DHT22;6080;48.818;9.526;2023-02-15T16:43:26;8.20;99.90
12039;DHT22;6080;48.818;9.526;2023-02-15T16:46:10;8.00;99.90
12039;DHT22;6080;48.818;9.526;2023-02-15T16:48:43;7.90;99.90
12039;DHT22;6080;48.818;9.526;2023-02-15T16:51:10;7.80;99.90
12039;DHT22;6080;48.818;9.526;2023-02-15T16:53:46;7.60;99.90
12039;DHT22;6080;48.818;9.526;2023-02-15T16:56:14;7.40;99.90
12039;DHT22;6080;48.818;9.526;2023-02-15T16:58:45;7.30;99.90
12039;DHT22;6080;48.818;9.526;2023-02-15T17:01:16;7.10;99.90
12039;DHT22;6080;48.818;9.526;2023-02-15T17:03:48;7.00;99.90
12039;DHT22;6080;48.818;9.526;2023-02-15T17:06:26;6.90;99.90
12039;DHT22;6080;48.818;9.526;2023-02-15T17:09:04;6.70;99.90
12039;DHT22;6080;48.818;9.526;2023-02-15T17:11:36;6.50;99.90
12039;DHT22;6080;48.818;9.526;2023-02-15T17:16:45;6.30;99.90
12039;DHT22;6080;48.818;9.526;2023-02-15T17:19:27;6.20;99.90
12039;DHT22;6080;48.818;9.526;2023-02-15T17:22:18;6.10;99.90
12039;DHT22;6080;48.818;9.526;2023-02-15T17:24:47;6.10;99.90
12039;DHT22;6080;48.818;9.526;2023-02-15T17:27:26;6.00;99.90
12039;DHT22;6080;48.818;9.526;2023-02-15T17:29:58;5.90;99.90
12039;DHT22;6080;48.818;9.526;2023-02-15T17:32:27;5.80;99.90
12039;DHT22;6080;48.818;9.526;2023-02-15T17:35:01;5.80;99.90
12039;DHT22;6080;48.818;9.526;2023-02-15T17:40:29;5.70;99.90
12039;DHT22;6080;48.818;9.526;2023-02-15T17:42:55;5.50;99.90
12039;DHT22;6080;48.818;9.526;2023-02-15T17:45:23;5.30;99.90
12039;DHT22;6080;48.818;9.526;2023-02-15T17:47:50;5.20;99.90
12039;DHT22;6080;48.818;9.526;2023-02-15T17:50:26;5.00;99.90
12039;DHT22;6080;48.818;9.526;2023-02-15T17:52:55;5.00;99.90
12039;DHT22;6080;48.818;9.526;2023-02-15T17:55:22;4.90;99.90
12039;DHT22;6080;48.818;9.526;2023-02-15T17:58:06;4.80;99.90
12039;DHT22;6080;48.818;9.526;2023-02-15T18:00:39;4.70;99.90
12039;DHT22;6080;48.818;9.526;2023-02-15T18:03:25;4.60;99.90
12039;DHT22;6080;48.818;9.526;2023-02-15T18:06:12;4.60;99.90
12039;DHT22;6080;48.818;9.526;2023-02-15T18:08:57;4.40;99.90
12039;DHT22;6080;48.818;9.526;2023-02-15T18:11:41;4.40;99.90
12039;DHT22;6080;48.818;9.526;2023-02-15T18:14:11;4.30;99.90
12039;DHT22;6080;48.818;9.526;2023-02-15T18:16:42;4.20;99.90
12039;DHT22;6080;48.818;9.526;2023-02-15T18:19:24;4.00;99.90
12039;DHT22;6080;48.818;9.526;2023-02-15T18:21:53;4.00;99.90
12039;DHT22;6080;48.818;9.526;2023-02-15T18:24:25;4.00;99.90
12039;DHT22;6080;48.818;9.526;2023-02-15T18:26:54;4.00;99.90
12039;DHT22;6080;48.818;9.526;2023-02-15T18:29:20;3.90;99.90
12039;DHT22;6080;48.818;9.526;2023-02-15T18:31:51;3.90;99.90
12039;DHT22;6080;48.818;9.526;2023-02-15T18:34:30;3.80;99.90
12039;DHT22;6080;48.818;9.526;2023-02-15T18:36:57;3.60;99.90
12039;DHT22;6080;48.818;9.526;2023-02-15T18:39:33;3.40;99.90
12039;DHT22;6080;48.818;9.526;2023-02-15T18:42:01;3.30;99.90
12039;DHT22;6080;48.818;9.526;2023-02-15T18:44:27;3.30;99.90
12039;DHT22;6080;48.818;9.526;2023-02-15T18:46:52;3.30;99.90
12039;DHT22;6080;48.818;9.526;2023-02-15T18:49:18;3.40;99.90
12039;DHT22;6080;48.818;9.526;2023-02-15T18:51:44;3.40;99.90
12039;DHT22;6080;48.818;9.526;2023-02-15T18:54:18;3.40;99.90
12039;DHT22;6080;48.818;9.526;2023-02-15T18:56:56;3.40;99.90
12039;DHT22;6080;48.818;9.526;2023-02-15T18:59:24;3.20;99.90
12039;DHT22;6080;48.818;9.526;2023-02-15T19:01:50;3.10;99.90
12039;DHT22;6080;48.818;9.526;2023-02-15T19:04:16;3.10;99.90
12039;DHT22;6080;48.818;9.526;2023-02-15T19:06:47;3.10;99.90
12039;DHT22;6080;48.818;9.526;2023-02-15T19:09:21;3.10;99.90
12039;DHT22;6080;48.818;9.526;2023-02-15T19:11:50;3.00;99.90
12039;DHT22;6080;48.818;9.526;2023-02-15T19:14:24;2.90;99.90
12039;DHT22;6080;48.818;9.526;2023-02-15T19:16:51;2.80;99.90
12039;DHT22;6080;48.818;9.526;2023-02-15T19:19:16;2.70;99.90
12039;DHT22;6080;48.818;9.526;2023-02-15T19:21:42;2.70;99.90
12039;DHT22;6080;48.818;9.526;2023-02-15T19:24:32;2.70;99.90
12039;DHT22;6080;48.818;9.526;2023-02-15T19:27:01;2.70;99.90
12039;DHT22;6080;48.818;9.526;2023-02-15T19:29:28;2.70;99.90
12039;DHT22;6080;48.818;9.526;2023-02-15T19:31:55;2.60;99.90
12039;DHT22;6080;48.818;9.526;2023-02-15T19:34:21;2.60;99.90
12039;DHT22;6080;48.818;9.526;2023-02-15T19:36:49;2.50;99.90
12039;DHT22;6080;48.818;9.526;2023-02-15T19:39:32;2.40;99.90
12039;DHT22;6080;48.818;9.526;2023-02-15T19:41:59;2.30;99.90
12039;DHT22;6080;48.818;9.526;2023-02-15T19:44:25;2.30;99.90
12039;DHT22;6080;48.818;9.526;2023-02-15T19:46:50;2.20;99.90
12039;DHT22;6080;48.818;9.526;2023-02-15T19:49:16;2.20;99.90
12039;DHT22;6080;48.818;9.526;2023-02-15T19:51:42;2.20;99.90
12039;DHT22;6080;48.818;9.526;2023-02-15T19:54:34;2.20;99.90
12039;DHT22;6080;48.818;9.526;2023-02-15T19:57:00;2.10;99.90
12039;DHT22;6080;48.818;9.526;2023-02-15T19:59:32;2.00;99.90
12039;DHT22;6080;48.818;9.526;2023-02-15T20:01:59;2.00;99.90
12039;DHT22;6080;48.818;9.526;2023-02-15T20:04:25;2.00;99.90
12039;DHT22;6080;48.818;9.526;2023-02-15T20:06:53;1.90;99.90
12039;DHT22;6080;48.818;9.526;2023-02-15T20:09:29;1.90;99.90
12039;DHT22;6080;48.818;9.526;2023-02-15T20:11:55;1.80;99.90
12039;DHT22;6080;48.818;9.526;2023-02-15T20:14:22;1.80;99.90
12039;DHT22;6080;48.818;9.526;2023-02-15T20:16:48;1.80;99.90
12039;DHT22;6080;48.818;9.526;2023-02-15T20:19:14;2.00;99.90
12039;DHT22;6080;48.818;9.526;2023-02-15T20:21:41;2.10;99.90
12039;DHT22;6080;48.818;9.526;2023-02-15T20:24:14;2.10;99.90
12039;DHT22;6080;48.818;9.526;2023-02-15T20:26:41;2.20;99.90
12039;DHT22;6080;48.818;9.526;2023-02-15T20:29:14;2.10;99.90
12039;DHT22;6080;48.818;9.526;2023-02-15T20:31:41;2.10;99.90
12039;DHT22;6080;48.818;9.526;2023-02-15T20:34:07;2.10;99.90
12039;DHT22;6080;48.818;9.526;2023-02-15T20:36:33;2.00;99.90
12039;DHT22;6080;48.818;9.526;2023-02-15T20:39:02;1.90;99.90
12039;DHT22;6080;48.818;9.526;2023-02-15T20:41:28;1.70;99.90
12039;DHT22;6080;48.818;9.526;2023-02-15T20:44:34;1.60;99.90
12039;DHT22;6080;48.818;9.526;2023-02-15T20:46:56;1.50;99.90
12039;DHT22;6080;48.818;9.526;2023-02-15T20:49:24;1.40;99.90
12039;DHT22;6080;48.818;9.526;2023-02-15T20:51:51;1.40;99.90
12039;DHT22;6080;48.818;9.526;2023-02-15T20:54:23;1.40;99.90
12039;DHT22;6080;48.818;9.526;2023-02-15T20:56:49;1.30;99.90
12039;DHT22;6080;48.818;9.526;2023-02-15T20:59:26;1.30;99.90
12039;DHT22;6080;48.818;9.526;2023-02-15T21:02:09;1.20;99.90
12039;DHT22;6080;48.818;9.526;2023-02-15T21:04:39;1.20;99.90
12039;DHT22;6080;48.818;9.526;2023-02-15T21:07:04;1.20;99.90
12039;DHT22;6080;48.818;9.526;2023-02-15T21:09:30;1.20;99.90
12039;DHT22;6080;48.818;9.526;2023-02-15T21:11:58;1.10;99.90
12039;DHT22;6080;48.818;9.526;2023-02-15T21:14:27;1.10;99.90
12039;DHT22;6080;48.818;9.526;2023-02-15T21:16:53;1.10;99.90
12039;DHT22;6080;48.818;9.526;2023-02-15T21:19:22;1.10;99.90
12039;DHT22;6080;48.818;9.526;2023-02-15T21:21:50;1.10;99.90
12039;DHT22;6080;48.818;9.526;2023-02-15T21:24:23;1.00;99.90
12039;DHT22;6080;48.818;9.526;2023-02-15T21:26:50;1.00;99.90
12039;DHT22;6080;48.818;9.526;2023-02-15T21:29:22;1.10;99.90
12039;DHT22;6080;48.818;9.526;2023-02-15T21:31:48;1.00;99.90
12039;DHT22;6080;48.818;9.526;2023-02-15T21:34:15;0.90;99.90
12039;DHT22;6080;48.818;9.526;2023-02-15T21:36:46;1.00;99.90
12039;DHT22;6080;48.818;9.526;2023-02-15T21:39:20;1.00;99.90
12039;DHT22;6080;48.818;9.526;2023-02-15T21:41:47;1.00;99.90
12039;DHT22;6080;48.818;9.526;2023-02-15T21:44:33;0.90;99.90
12039;DHT22;6080;48.818;9.526;2023-02-15T21:47:22;0.90;99.90
12039;DHT22;6080;48.818;9.526;2023-02-15T21:50:23;0.80;99.90
12039;DHT22;6080;48.818;9.526;2023-02-15T21:53:27;0.70;99.90
12039;DHT22;6080;48.818;9.526;2023-02-15T21:55:57;0.70;99.90
12039;DHT22;6080;48.818;9.526;2023-02-15T21:58:25;0.70;99.90
